createdAt,value
2023-02-12T00:00:08.404Z,27.80
2023-02-12T00:02:35.674Z,24.35
2023-02-12T00:05:03.018Z,22.60
2023-02-12T00:07:31.274Z,22.92
2023-02-12T00:09:58.443Z,21.13
2023-02-12T00:12:25.614Z,22.55
2023-02-12T00:14:52.711Z,23.83
2023-02-12T00:17:19.797Z,21.33
2023-02-12T00:19:48.634Z,22.92
2023-02-12T00:24:42.817Z,20.73
2023-02-12T00:27:09.996Z,23.23
2023-02-12T00:29:37.817Z,21.15
2023-02-12T00:32:05.052Z,22.85
2023-02-12T00:34:33.101Z,24.13
2023-02-12T00:37:00.413Z,25.33
2023-02-12T00:39:27.592Z,26.48
2023-02-12T00:41:54.886Z,21.15
2023-02-12T00:44:22.023Z,20.30
2023-02-12T00:46:49.219Z,23.52
2023-02-12T00:49:16.699Z,21.30
2023-02-12T00:51:43.988Z,22.77
2023-02-12T00:54:11.118Z,25.52
2023-02-12T00:56:38.217Z,20.05
2023-02-12T00:59:05.365Z,21.88
2023-02-12T01:01:32.701Z,20.95
2023-02-12T01:03:59.902Z,20.35
2023-02-12T01:06:27.082Z,23.25
2023-02-12T01:08:54.234Z,22.38
2023-02-12T01:11:21.549Z,23.80
2023-02-12T01:13:48.923Z,24.48
2023-02-12T01:16:21.591Z,20.27
2023-02-12T01:18:49.260Z,23.50
2023-02-12T01:21:20.474Z,22.15
2023-02-12T01:23:47.824Z,22.35
2023-02-12T01:26:16.102Z,24.98
2023-02-12T01:28:44.269Z,23.92
2023-02-12T01:31:12.543Z,23.30
2023-02-12T01:33:39.851Z,25.60
2023-02-12T01:36:07.661Z,25.75
2023-02-12T01:38:35.008Z,26.77
2023-02-12T01:41:04.987Z,24.75
2023-02-12T01:43:32.196Z,26.65
2023-02-12T01:46:00.472Z,24.45
2023-02-12T01:48:29.293Z,21.52
2023-02-12T01:50:56.918Z,24.63
2023-02-12T01:53:25.606Z,24.73
2023-02-12T01:55:56.089Z,24.63
2023-02-12T01:58:24.959Z,25.67
2023-02-12T02:00:52.130Z,24.95
2023-02-12T02:03:19.427Z,24.60
2023-02-12T02:05:49.614Z,22.23
2023-02-12T02:08:17.094Z,24.42
2023-02-12T02:10:44.281Z,26.90
2023-02-12T02:13:50.353Z,23.17
2023-02-12T02:16:26.467Z,25.48
2023-02-12T02:19:00.109Z,26.67
2023-02-12T02:21:46.766Z,21.25
2023-02-12T02:24:26.174Z,22.30
2023-02-12T02:26:59.246Z,22.00
2023-02-12T02:29:45.464Z,25.00
2023-02-12T02:32:41.939Z,23.38
2023-02-12T02:35:13.586Z,24.35
2023-02-12T02:37:44.049Z,22.38
2023-02-12T02:40:34.564Z,24.30
2023-02-12T02:43:05.604Z,25.02
2023-02-12T02:45:37.502Z,23.20
2023-02-12T02:48:07.679Z,22.65
2023-02-12T02:50:36.444Z,24.23
2023-02-12T02:53:06.488Z,29.40
2023-02-12T02:55:36.845Z,26.67
2023-02-12T02:58:14.342Z,26.10
2023-02-12T03:00:47.284Z,23.60
2023-02-12T03:03:26.717Z,24.58
2023-02-12T03:05:56.345Z,28.52
2023-02-12T03:08:26.221Z,25.15
2023-02-12T03:11:02.278Z,25.83
2023-02-12T03:13:38.358Z,24.35
2023-02-12T03:16:08.912Z,25.17
2023-02-12T03:18:39.631Z,25.35
2023-02-12T03:21:10.265Z,26.17
2023-02-12T03:23:57.609Z,23.77
2023-02-12T03:28:52.937Z,27.88
2023-02-12T03:31:32.097Z,23.98
2023-02-12T03:34:05.330Z,25.73
2023-02-12T03:36:49.000Z,22.90
2023-02-12T03:39:34.100Z,22.70
2023-02-12T03:42:01.200Z,25.77
2023-02-12T03:44:40.617Z,24.65
2023-02-12T03:47:26.471Z,24.98
2023-02-12T03:50:02.704Z,26.90
2023-02-12T03:52:30.159Z,27.10
2023-02-12T03:54:57.463Z,23.42
2023-02-12T03:57:30.577Z,26.75
2023-02-12T04:00:03.266Z,27.88
2023-02-12T04:02:30.554Z,25.48
2023-02-12T04:04:57.638Z,27.70
2023-02-12T04:07:24.822Z,26.77
2023-02-12T04:09:51.965Z,23.98
2023-02-12T04:12:34.040Z,25.15
2023-02-12T04:15:04.072Z,25.85
2023-02-12T04:17:36.605Z,25.58
2023-02-12T04:20:22.700Z,31.65
2023-02-12T04:22:49.868Z,26.35
2023-02-12T04:25:19.708Z,26.77
2023-02-12T04:27:55.917Z,32.10
2023-02-12T04:30:25.892Z,25.52
2023-02-12T04:33:04.354Z,27.83
2023-02-12T04:35:40.015Z,26.95
2023-02-12T04:38:45.714Z,25.20
2023-02-12T04:41:13.127Z,25.88
2023-02-12T04:43:40.255Z,25.10
2023-02-12T04:46:08.546Z,26.17
2023-02-12T04:48:38.023Z,26.73
2023-02-12T04:51:05.289Z,26.45
2023-02-12T04:53:32.402Z,26.67
2023-02-12T04:55:59.561Z,24.13
2023-02-12T04:58:26.744Z,25.00
2023-02-12T05:00:53.914Z,26.27
2023-02-12T05:03:21.247Z,26.02
2023-02-12T05:05:48.365Z,25.42
2023-02-12T05:08:15.636Z,25.50
2023-02-12T05:10:42.754Z,25.08
2023-02-12T05:13:11.230Z,25.67
2023-02-12T05:15:39.858Z,24.05
2023-02-12T05:18:07.221Z,24.80
2023-02-12T05:20:34.298Z,22.65
2023-02-12T05:23:01.421Z,25.80
2023-02-12T05:25:28.518Z,25.85
2023-02-12T05:27:57.244Z,29.30
2023-02-12T05:30:24.591Z,29.30
2023-02-12T05:32:51.721Z,24.13
2023-02-12T05:35:20.249Z,25.25
2023-02-12T05:37:47.385Z,26.60
2023-02-12T05:40:15.159Z,24.85
2023-02-12T05:42:42.345Z,25.42
2023-02-12T05:45:09.618Z,24.95
2023-02-12T05:47:36.805Z,25.00
2023-02-12T05:50:04.297Z,24.13
2023-02-12T05:52:31.415Z,23.65
2023-02-12T05:54:58.546Z,26.30
2023-02-12T05:57:25.621Z,26.42
2023-02-12T05:59:52.724Z,26.35
2023-02-12T06:02:19.975Z,23.65
2023-02-12T06:04:48.666Z,25.90
2023-02-12T06:07:16.030Z,23.85
2023-02-12T06:09:43.151Z,24.88
2023-02-12T06:12:10.274Z,23.08
2023-02-12T06:14:37.391Z,23.55
2023-02-12T06:17:04.586Z,26.75
2023-02-12T06:19:31.717Z,24.58
2023-02-12T06:21:58.816Z,25.85
2023-02-12T06:24:26.379Z,25.88
2023-02-12T06:26:53.627Z,26.45
2023-02-12T06:29:21.276Z,26.25
2023-02-12T06:31:48.525Z,26.38
2023-02-12T06:34:18.892Z,25.45
2023-02-12T06:36:46.849Z,27.17
2023-02-12T06:39:17.686Z,25.35
2023-02-12T06:41:45.330Z,26.77
2023-02-12T06:44:12.903Z,22.23
2023-02-12T06:46:40.188Z,24.75
2023-02-12T06:49:07.777Z,24.75
2023-02-12T06:51:36.408Z,22.75
2023-02-12T06:54:03.548Z,26.40
2023-02-12T06:56:30.735Z,25.35
2023-02-12T06:59:00.442Z,24.20
2023-02-12T07:01:28.757Z,23.75
2023-02-12T07:03:57.395Z,24.80
2023-02-12T07:06:25.225Z,25.50
2023-02-12T07:08:52.705Z,25.08
2023-02-12T07:11:23.330Z,24.33
2023-02-12T07:13:50.530Z,24.70
2023-02-12T07:16:17.994Z,24.52
2023-02-12T07:18:46.218Z,24.50
2023-02-12T07:21:13.974Z,25.05
2023-02-12T07:23:41.289Z,23.35
2023-02-12T07:26:10.095Z,26.80
2023-02-12T07:28:37.448Z,22.90
2023-02-12T07:31:09.021Z,26.13
2023-02-12T07:33:36.515Z,26.45
2023-02-12T07:36:04.035Z,21.73
2023-02-12T07:38:31.285Z,22.63
2023-02-12T07:41:09.492Z,23.48
2023-02-12T07:43:37.938Z,22.52
2023-02-12T07:46:12.036Z,22.85
2023-02-12T07:48:41.810Z,23.38
2023-02-12T07:51:10.412Z,25.90
2023-02-12T07:53:37.637Z,29.85
2023-02-12T07:56:07.804Z,23.88
2023-02-12T07:58:34.920Z,21.42
2023-02-12T08:01:02.166Z,23.58
2023-02-12T08:03:29.677Z,25.63
2023-02-12T08:05:57.200Z,26.35
2023-02-12T08:08:24.578Z,24.20
2023-02-12T08:10:51.647Z,24.20
2023-02-12T08:13:19.291Z,22.15
2023-02-12T08:15:46.417Z,22.50
2023-02-12T08:18:13.538Z,23.90
2023-02-12T08:20:40.628Z,24.35
2023-02-12T08:23:07.772Z,23.02
2023-02-12T08:25:34.986Z,22.73
2023-02-12T08:28:02.138Z,22.90
2023-02-12T08:30:29.295Z,25.30
2023-02-12T08:32:56.502Z,23.95
2023-02-12T08:35:23.588Z,24.80
2023-02-12T08:37:50.841Z,28.73
2023-02-12T08:40:18.006Z,25.40
2023-02-12T08:42:45.203Z,26.13
2023-02-12T08:45:12.377Z,23.73
2023-02-12T08:47:39.629Z,23.80
2023-02-12T08:50:07.194Z,23.45
2023-02-12T08:52:35.457Z,25.95
2023-02-12T08:55:02.591Z,27.55
2023-02-12T08:57:29.712Z,25.92
2023-02-12T08:59:57.245Z,25.52
2023-02-12T09:02:24.416Z,25.98
2023-02-12T09:04:51.558Z,23.65
2023-02-12T09:07:19.073Z,23.35
2023-02-12T09:09:46.256Z,23.67
2023-02-12T09:12:13.340Z,24.83
2023-02-12T09:14:40.517Z,23.95
2023-02-12T09:17:07.649Z,22.38
2023-02-12T09:19:35.013Z,26.67
2023-02-12T09:22:02.214Z,23.83
2023-02-12T09:24:29.434Z,25.63
2023-02-12T09:26:56.754Z,24.23
2023-02-12T09:29:24.042Z,27.60
2023-02-12T09:31:51.633Z,28.58
2023-02-12T09:34:19.014Z,28.38
2023-02-12T09:36:46.144Z,30.05
2023-02-12T09:39:13.337Z,27.08
2023-02-12T09:41:59.397Z,27.65
2023-02-12T09:44:30.597Z,29.20
2023-02-12T09:47:03.554Z,26.92
2023-02-12T09:49:33.362Z,26.67
2023-02-12T09:52:00.926Z,27.83
2023-02-12T09:54:34.814Z,26.23
2023-02-12T09:57:02.587Z,34.45
2023-02-12T09:59:33.313Z,30.25
2023-02-12T10:02:00.577Z,28.35
2023-02-12T10:04:28.793Z,27.85
2023-02-12T10:07:02.440Z,27.42
2023-02-12T10:09:35.645Z,30.02
2023-02-12T10:12:02.990Z,23.83
2023-02-12T10:14:30.080Z,25.70
2023-02-12T10:17:17.469Z,28.40
2023-02-12T10:20:13.003Z,26.88
2023-02-12T10:23:03.245Z,26.60
2023-02-12T10:25:34.803Z,26.27
2023-02-12T10:28:06.256Z,25.77
2023-02-12T10:30:42.526Z,27.05
2023-02-12T10:33:15.118Z,26.55
2023-02-12T10:35:45.473Z,27.20
2023-02-12T10:38:17.043Z,28.00
2023-02-12T10:40:45.289Z,25.80
2023-02-12T10:43:13.280Z,26.15
2023-02-12T10:45:42.108Z,26.95
2023-02-12T10:48:12.225Z,26.05
2023-02-12T10:50:56.706Z,26.58
2023-02-12T10:53:25.998Z,26.27
2023-02-12T10:56:11.940Z,25.75
2023-02-12T10:58:51.532Z,23.63
2023-02-12T11:01:22.145Z,24.13
2023-02-12T11:03:49.355Z,22.25
2023-02-12T11:06:18.697Z,20.10
2023-02-12T11:08:46.182Z,22.85
2023-02-12T11:11:26.191Z,22.25
2023-02-12T11:13:56.115Z,21.10
2023-02-12T11:16:30.654Z,26.58
2023-02-12T11:19:07.902Z,25.50
2023-02-12T11:21:36.495Z,23.40
2023-02-12T11:24:42.287Z,23.92
2023-02-12T11:29:36.462Z,20.55
2023-02-12T11:32:05.280Z,22.42
2023-02-12T11:37:01.265Z,22.30
2023-02-12T11:39:33.801Z,22.15
2023-02-12T11:42:04.779Z,24.52
2023-02-12T11:44:36.567Z,24.08
2023-02-12T11:47:09.312Z,21.55
2023-02-12T11:49:44.863Z,23.67
2023-02-12T11:52:38.016Z,22.65
2023-02-12T11:55:07.558Z,20.95
2023-02-12T11:57:37.699Z,21.48
2023-02-12T12:00:18.044Z,21.27
2023-02-12T12:02:56.010Z,19.50
2023-02-12T12:05:26.930Z,20.88
2023-02-12T12:07:58.549Z,18.92
2023-02-12T12:10:37.323Z,23.33
2023-02-12T12:13:06.428Z,20.05
2023-02-12T12:15:55.212Z,18.80
2023-02-12T12:18:48.382Z,21.23
2023-02-12T12:21:15.533Z,19.65
2023-02-12T12:23:48.672Z,20.27
2023-02-12T12:26:21.553Z,17.58
2023-02-12T12:28:53.154Z,17.45
2023-02-12T12:31:23.814Z,19.42
2023-02-12T12:34:11.279Z,15.95
2023-02-12T12:36:44.756Z,16.35
2023-02-12T12:39:21.503Z,18.42
2023-02-12T12:41:50.428Z,18.40
2023-02-12T12:44:23.783Z,17.85
2023-02-12T12:46:59.955Z,17.52
2023-02-12T12:49:36.101Z,20.98
2023-02-12T12:52:09.006Z,18.27
2023-02-12T12:54:52.857Z,16.80
2023-02-12T12:57:38.998Z,17.45
2023-02-12T13:00:23.211Z,19.83
2023-02-12T13:03:10.803Z,15.18
2023-02-12T13:06:00.968Z,16.90
2023-02-12T13:08:28.172Z,18.08
2023-02-12T13:11:01.004Z,17.55
2023-02-12T13:13:36.067Z,18.05
2023-02-12T13:16:22.603Z,17.75
2023-02-12T13:19:08.381Z,18.85
2023-02-12T13:21:36.801Z,20.10
2023-02-12T13:24:24.639Z,18.35
2023-02-12T13:26:52.873Z,18.77
2023-02-12T13:29:21.731Z,19.38
2023-02-12T13:36:43.597Z,18.10
2023-02-12T13:39:25.893Z,17.88
2023-02-12T13:42:13.248Z,17.92
2023-02-12T13:45:02.620Z,18.45
2023-02-12T13:47:30.036Z,17.65
2023-02-12T13:50:01.795Z,17.80
2023-02-12T13:52:33.959Z,17.63
2023-02-12T13:55:19.966Z,17.52
2023-02-12T13:57:47.075Z,18.25
2023-02-12T14:00:49.591Z,18.58
2023-02-12T14:03:17.022Z,17.85
2023-02-12T14:05:47.253Z,17.13
2023-02-12T14:08:31.237Z,17.50
2023-02-12T14:11:08.127Z,16.45
2023-02-12T14:13:47.276Z,16.80
2023-02-12T14:16:29.759Z,17.02
2023-02-12T14:19:15.428Z,14.95
2023-02-12T14:21:46.856Z,17.67
2023-02-12T14:24:59.510Z,18.60
2023-02-12T14:27:28.827Z,16.80
2023-02-12T14:30:22.886Z,17.60
2023-02-12T14:32:55.329Z,15.55
2023-02-12T14:35:31.931Z,16.95
2023-02-12T14:38:02.320Z,17.45
2023-02-12T14:40:51.504Z,17.02
2023-02-12T14:43:26.957Z,19.50
2023-02-12T14:45:59.269Z,18.08
2023-02-12T14:48:59.245Z,17.10
2023-02-12T14:51:36.650Z,16.70
2023-02-12T14:54:05.707Z,16.48
2023-02-12T14:56:37.289Z,18.08
2023-02-12T14:59:05.016Z,18.60
2023-02-12T15:01:34.161Z,17.13
2023-02-12T15:04:08.872Z,19.42
2023-02-12T15:06:38.561Z,16.80
2023-02-12T15:09:10.622Z,17.90
2023-02-12T15:11:50.710Z,18.73
2023-02-12T15:14:17.877Z,18.40
2023-02-12T15:16:53.099Z,18.27
2023-02-12T15:19:20.201Z,17.73
2023-02-12T15:21:48.133Z,18.25
2023-02-12T15:24:22.610Z,19.25
2023-02-12T15:26:57.065Z,18.25
2023-02-12T15:29:30.401Z,17.73
2023-02-12T15:31:58.849Z,19.05
2023-02-12T15:34:30.033Z,21.15
2023-02-12T15:36:59.633Z,18.00
2023-02-12T15:39:28.186Z,20.10
2023-02-12T15:41:55.396Z,22.17
2023-02-12T15:44:24.355Z,18.92
2023-02-12T15:46:59.174Z,24.48
2023-02-12T15:49:31.611Z,22.23
2023-02-12T15:51:59.720Z,20.27
2023-02-12T15:54:28.032Z,21.33
2023-02-12T15:56:56.165Z,18.65
2023-02-12T15:59:25.074Z,21.27
2023-02-12T16:04:19.926Z,21.63
2023-02-12T16:06:49.508Z,25.20
2023-02-12T16:09:21.486Z,23.23
2023-02-12T16:17:26.672Z,22.02
2023-02-12T16:19:54.914Z,28.83
2023-02-12T16:22:23.958Z,26.15
2023-02-12T16:24:51.914Z,22.95
2023-02-12T16:27:23.669Z,25.92
2023-02-12T16:29:55.702Z,25.95
2023-02-12T16:32:27.780Z,27.05
2023-02-12T16:35:02.540Z,24.83
2023-02-12T16:37:36.030Z,26.88
2023-02-12T16:40:15.564Z,25.13
2023-02-12T16:42:48.909Z,35.25
2023-02-12T16:45:28.419Z,35.65
2023-02-12T16:47:57.985Z,25.38
2023-02-12T16:50:26.805Z,28.55
2023-02-12T16:55:21.077Z,24.08
2023-02-12T16:57:48.266Z,27.15
2023-02-12T17:00:17.092Z,25.88
2023-02-12T17:02:44.391Z,26.17
2023-02-12T17:05:11.790Z,29.58
2023-02-12T17:07:38.968Z,30.63
2023-02-12T17:10:08.556Z,28.00
2023-02-12T17:12:35.896Z,26.67
2023-02-12T17:15:05.946Z,30.70
2023-02-12T17:17:33.167Z,30.20
2023-02-12T17:20:00.371Z,33.47
2023-02-12T17:22:28.471Z,38.67
2023-02-12T17:24:55.775Z,26.40
2023-02-12T17:27:23.048Z,35.20
2023-02-12T17:29:50.363Z,38.83
2023-02-12T17:32:17.640Z,51.78
2023-02-12T17:34:48.763Z,41.88
2023-02-12T17:37:16.674Z,48.30
2023-02-12T17:39:43.858Z,41.72
2023-02-12T17:42:12.167Z,38.13
2023-02-12T17:44:40.010Z,39.92
2023-02-12T17:47:07.199Z,42.88
2023-02-12T17:49:35.576Z,45.72
2023-02-12T17:52:04.780Z,42.05
2023-02-12T17:54:33.590Z,42.38
2023-02-12T17:57:00.716Z,38.80
2023-02-12T17:59:28.340Z,38.85
2023-02-12T18:04:24.100Z,46.50
2023-02-12T18:06:51.665Z,31.02
2023-02-12T18:09:19.038Z,39.83
2023-02-12T18:11:46.219Z,34.58
2023-02-12T18:14:13.526Z,33.92
2023-02-12T18:16:40.734Z,34.88
2023-02-12T18:19:07.958Z,39.75
2023-02-12T18:21:35.226Z,38.65
2023-02-12T18:24:02.591Z,39.22
2023-02-12T18:26:29.893Z,38.05
2023-02-12T18:28:58.540Z,39.88
2023-02-12T18:31:26.038Z,38.30
2023-02-12T18:33:53.523Z,36.70
2023-02-12T18:36:24.122Z,33.17
2023-02-12T18:38:52.123Z,30.33
2023-02-12T18:41:24.205Z,30.48
2023-02-12T18:43:52.428Z,29.20
2023-02-12T18:46:23.310Z,39.55
2023-02-12T18:48:51.217Z,41.28
2023-02-12T18:51:21.296Z,32.67
2023-02-12T18:53:49.537Z,35.53
2023-02-12T18:56:16.715Z,36.97
2023-02-12T18:58:43.987Z,30.98
2023-02-12T19:01:15.968Z,35.70
2023-02-12T19:03:43.580Z,37.17
2023-02-12T19:06:11.016Z,31.20
2023-02-12T19:08:38.346Z,42.25
2023-02-12T19:11:10.009Z,28.10
2023-02-12T19:13:37.488Z,32.67
2023-02-12T19:16:11.947Z,50.08
2023-02-12T19:18:39.412Z,37.38
2023-02-12T19:21:10.800Z,38.15
2023-02-12T19:23:38.998Z,29.83
2023-02-12T19:26:07.127Z,28.13
2023-02-12T19:28:34.650Z,27.65
2023-02-12T19:31:14.984Z,33.90
2023-02-12T19:33:43.299Z,30.42
2023-02-12T19:36:11.472Z,34.17
2023-02-12T19:38:38.688Z,33.42
2023-02-12T19:41:06.742Z,31.05
2023-02-12T19:43:33.979Z,28.90
2023-02-12T19:46:02.041Z,32.05
2023-02-12T19:48:29.784Z,25.33
2023-02-12T19:50:57.457Z,26.10
2023-02-12T19:53:24.983Z,29.27
2023-02-12T19:55:52.254Z,35.47
2023-02-12T19:58:19.398Z,27.05
2023-02-12T20:00:46.757Z,24.98
2023-02-12T20:03:14.079Z,23.27
2023-02-12T20:05:44.637Z,25.65
2023-02-12T20:08:11.841Z,29.27
2023-02-12T20:10:42.511Z,27.13
2023-02-12T20:13:09.806Z,24.30
2023-02-12T20:15:37.633Z,26.48
2023-02-12T20:18:05.269Z,28.60
2023-02-12T20:20:33.110Z,27.67
2023-02-12T20:23:00.594Z,33.55
2023-02-12T20:25:28.238Z,34.65
2023-02-12T20:27:55.589Z,37.42
2023-02-12T20:30:22.941Z,24.90
2023-02-12T20:32:50.170Z,26.92
2023-02-12T20:35:17.366Z,26.63
2023-02-12T20:37:47.734Z,26.75
2023-02-12T20:40:15.124Z,24.02
2023-02-12T20:42:42.393Z,25.48
2023-02-12T20:45:09.818Z,29.73
2023-02-12T20:47:37.005Z,25.58
2023-02-12T20:50:04.364Z,27.40
2023-02-12T20:52:34.482Z,25.73
2023-02-12T20:55:01.689Z,28.02
2023-02-12T20:57:28.943Z,22.52
2023-02-12T20:59:56.071Z,26.45
2023-02-12T21:02:24.437Z,23.73
2023-02-12T21:04:52.239Z,24.50
2023-02-12T21:07:19.339Z,27.95
2023-02-12T21:09:46.553Z,29.45
2023-02-12T21:12:13.827Z,28.45
2023-02-12T21:14:41.067Z,30.95
2023-02-12T21:17:08.216Z,32.08
2023-02-12T21:19:36.990Z,32.53
2023-02-12T21:22:04.294Z,33.28
2023-02-12T21:24:31.775Z,35.83
2023-02-12T21:26:59.003Z,32.65
2023-02-12T21:29:27.491Z,33.95
2023-02-12T21:31:55.345Z,33.58
2023-02-12T21:34:23.497Z,36.17
2023-02-12T21:36:51.363Z,35.08
2023-02-12T21:39:25.080Z,35.92
2023-02-12T21:41:53.563Z,31.45
2023-02-12T21:44:21.165Z,32.90
2023-02-12T21:46:48.350Z,33.80
2023-02-12T21:49:23.276Z,32.38
2023-02-12T21:51:50.626Z,34.92
2023-02-12T21:54:17.730Z,33.60
2023-02-12T21:56:45.466Z,34.08
2023-02-12T21:59:13.347Z,35.13
2023-02-12T22:01:44.915Z,33.35
2023-02-12T22:04:12.697Z,36.20
2023-02-12T22:06:41.311Z,33.80
2023-02-12T22:09:09.574Z,33.67
2023-02-12T22:11:37.543Z,31.30
2023-02-12T22:14:06.764Z,31.38
2023-02-12T22:16:34.231Z,32.75
2023-02-12T22:19:01.995Z,34.75
2023-02-12T22:21:30.253Z,32.15
2023-02-12T22:23:59.481Z,33.10
2023-02-12T22:26:27.739Z,34.22
2023-02-12T22:28:59.000Z,30.13
2023-02-12T22:31:30.475Z,29.42
2023-02-12T22:33:58.748Z,33.53
2023-02-12T22:36:26.545Z,32.92
2023-02-12T22:38:54.531Z,31.17
2023-02-12T22:41:22.121Z,35.45
2023-02-12T22:43:49.291Z,33.80
2023-02-12T22:46:17.047Z,33.55
2023-02-12T22:48:44.735Z,32.88
2023-02-12T22:51:13.857Z,33.58
2023-02-12T22:53:41.185Z,23.40
2023-02-12T22:56:08.925Z,28.77
2023-02-12T22:58:38.038Z,33.58
2023-02-12T23:01:09.193Z,32.50
2023-02-12T23:03:39.897Z,34.05
2023-02-12T23:06:08.562Z,31.00
2023-02-12T23:08:35.693Z,32.88
2023-02-12T23:11:02.974Z,30.27
2023-02-12T23:13:32.696Z,28.08
2023-02-12T23:16:00.001Z,28.00
2023-02-12T23:18:27.530Z,31.75
2023-02-12T23:20:54.876Z,29.92
2023-02-12T23:23:22.548Z,25.23
2023-02-12T23:25:49.942Z,31.20
2023-02-12T23:28:17.254Z,29.00
2023-02-12T23:30:44.511Z,32.70
2023-02-12T23:33:11.787Z,34.78
2023-02-12T23:35:38.933Z,27.48
2023-02-12T23:38:06.179Z,30.40
2023-02-12T23:40:33.866Z,30.45
2023-02-12T23:43:01.146Z,27.30
2023-02-12T23:45:29.029Z,31.10
2023-02-12T23:47:56.547Z,32.13
2023-02-12T23:50:24.305Z,31.60
2023-02-12T23:52:51.469Z,28.98
2023-02-12T23:55:20.310Z,27.52
2023-02-12T23:57:47.675Z,31.20
